sensor_id;sensor_type;location;lat;lon;timestamp;temperature;humidity
23411;DHT22;11878;51.774;7.220;2024-02-21T00:00:51;8.90;99.90
23411;DHT22;11878;51.774;7.220;2024-02-21T00:03:53;8.90;99.90
23411;DHT22;11878;51.774;7.220;2024-02-21T00:06:55;8.90;99.90
23411;DHT22;11878;51.774;7.220;2024-02-21T00:09:57;8.90;99.90
23411;DHT22;11878;51.774;7.220;2024-02-21T00:12:59;8.80;99.90
23411;DHT22;11878;51.774;7.220;2024-02-21T00:16:01;8.90;99.90
23411;DHT22;11878;51.774;7.220;2024-02-21T00:19:03;8.90;99.90
23411;DHT22;11878;51.774;7.220;2024-02-21T00:22:05;8.90;99.90
23411;DHT22;11878;51.774;7.220;2024-02-21T00:25:07;8.90;99.90
23411;DHT22;11878;51.774;7.220;2024-02-21T00:28:09;8.80;99.90
23411;DHT22;11878;51.774;7.220;2024-02-21T00:31:11;8.80;99.90
23411;DHT22;11878;51.774;7.220;2024-02-21T00:34:13;8.90;99.90
23411;DHT22;11878;51.774;7.220;2024-02-21T00:37:15;8.90;99.90
23411;DHT22;11878;51.774;7.220;2024-02-21T00:40:17;8.80;99.90
23411;DHT22;11878;51.774;7.220;2024-02-21T00:43:22;8.80;99.90
23411;DHT22;11878;51.774;7.220;2024-02-21T00:46:25;8.80;99.90
23411;DHT22;11878;51.774;7.220;2024-02-21T00:49:27;8.80;99.90
23411;DHT22;11878;51.774;7.220;2024-02-21T00:52:29;8.70;99.90
23411;DHT22;11878;51.774;7.220;2024-02-21T00:55:30;8.70;99.90
23411;DHT22;11878;51.774;7.220;2024-02-21T00:58:32;8.80;99.90
23411;DHT22;11878;51.774;7.220;2024-02-21T01:01:34;8.80;99.90
23411;DHT22;11878;51.774;7.220;2024-02-21T01:04:36;8.70;99.90
23411;DHT22;11878;51.774;7.220;2024-02-21T01:07:38;8.70;99.90
23411;DHT22;11878;51.774;7.220;2024-02-21T01:10:40;8.70;99.90
23411;DHT22;11878;51.774;7.220;2024-02-21T01:13:42;8.70;99.90
23411;DHT22;11878;51.774;7.220;2024-02-21T01:16:44;8.70;99.90
23411;DHT22;11878;51.774;7.220;2024-02-21T01:19:46;8.70;99.90
23411;DHT22;11878;51.774;7.220;2024-02-21T01:22:48;8.80;99.90
23411;DHT22;11878;51.774;7.220;2024-02-21T01:25:50;8.80;99.90
23411;DHT22;11878;51.774;7.220;2024-02-21T01:28:52;8.80;99.90
23411;DHT22;11878;51.774;7.220;2024-02-21T01:31:54;8.80;99.90
23411;DHT22;11878;51.774;7.220;2024-02-21T01:34:56;8.90;99.90
23411;DHT22;11878;51.774;7.220;2024-02-21T01:37:59;8.90;99.90
23411;DHT22;11878;51.774;7.220;2024-02-21T01:41:01;8.90;99.90
23411;DHT22;11878;51.774;7.220;2024-02-21T01:44:03;8.90;99.90
23411;DHT22;11878;51.774;7.220;2024-02-21T01:47:06;8.90;99.90
23411;DHT22;11878;51.774;7.220;2024-02-21T01:50:08;8.90;99.90
23411;DHT22;11878;51.774;7.220;2024-02-21T01:53:10;8.80;99.90
23411;DHT22;11878;51.774;7.220;2024-02-21T01:56:19;8.90;99.90
23411;DHT22;11878;51.774;7.220;2024-02-21T01:59:21;8.90;99.90
23411;DHT22;11878;51.774;7.220;2024-02-21T02:02:24;8.90;99.90
23411;DHT22;11878;51.774;7.220;2024-02-21T02:05:26;8.90;99.90
23411;DHT22;11878;51.774;7.220;2024-02-21T02:08:28;8.90;99.90
23411;DHT22;11878;51.774;7.220;2024-02-21T02:11:32;8.90;99.90
23411;DHT22;11878;51.774;7.220;2024-02-21T02:14:34;8.80;99.90
23411;DHT22;11878;51.774;7.220;2024-02-21T02:17:36;8.80;99.90
23411;DHT22;11878;51.774;7.220;2024-02-21T02:20:38;8.80;99.90
23411;DHT22;11878;51.774;7.220;2024-02-21T02:23:41;8.80;99.90
23411;DHT22;11878;51.774;7.220;2024-02-21T02:26:44;8.80;99.90
23411;DHT22;11878;51.774;7.220;2024-02-21T02:29:45;8.80;99.90
23411;DHT22;11878;51.774;7.220;2024-02-21T02:32:47;8.80;99.90
23411;DHT22;11878;51.774;7.220;2024-02-21T02:35:49;8.80;99.90
23411;DHT22;11878;51.774;7.220;2024-02-21T02:38:51;8.80;99.90
23411;DHT22;11878;51.774;7.220;2024-02-21T02:41:53;8.80;99.90
23411;DHT22;11878;51.774;7.220;2024-02-21T02:44:55;8.70;99.90
23411;DHT22;11878;51.774;7.220;2024-02-21T02:47:59;8.70;99.90
23411;DHT22;11878;51.774;7.220;2024-02-21T02:51:01;8.70;99.90
23411;DHT22;11878;51.774;7.220;2024-02-21T02:54:03;8.70;99.90
23411;DHT22;11878;51.774;7.220;2024-02-21T02:57:05;8.60;99.90
23411;DHT22;11878;51.774;7.220;2024-02-21T03:00:08;8.70;99.90
23411;DHT22;11878;51.774;7.220;2024-02-21T03:03:11;8.70;99.90
23411;DHT22;11878;51.774;7.220;2024-02-21T03:06:13;8.70;99.90
23411;DHT22;11878;51.774;7.220;2024-02-21T03:09:15;8.80;99.90
23411;DHT22;11878;51.774;7.220;2024-02-21T03:12:17;8.80;99.90
23411;DHT22;11878;51.774;7.220;2024-02-21T03:15:25;8.80;99.90
23411;DHT22;11878;51.774;7.220;2024-02-21T03:18:27;8.80;99.90
23411;DHT22;11878;51.774;7.220;2024-02-21T03:21:29;8.80;99.90
23411;DHT22;11878;51.774;7.220;2024-02-21T03:24:31;8.80;99.90
23411;DHT22;11878;51.774;7.220;2024-02-21T03:27:33;8.90;99.90
23411;DHT22;11878;51.774;7.220;2024-02-21T03:30:35;8.80;99.90
23411;DHT22;11878;51.774;7.220;2024-02-21T03:33:37;8.90;99.90
23411;DHT22;11878;51.774;7.220;2024-02-21T03:36:39;8.80;99.90
23411;DHT22;11878;51.774;7.220;2024-02-21T03:39:41;8.90;99.90
23411;DHT22;11878;51.774;7.220;2024-02-21T03:42:43;8.90;99.90
23411;DHT22;11878;51.774;7.220;2024-02-21T03:45:45;8.80;99.90
23411;DHT22;11878;51.774;7.220;2024-02-21T03:48:47;8.80;99.90
23411;DHT22;11878;51.774;7.220;2024-02-21T03:51:49;8.80;99.90
23411;DHT22;11878;51.774;7.220;2024-02-21T03:54:51;8.90;99.90
23411;DHT22;11878;51.774;7.220;2024-02-21T03:57:52;8.70;99.90
23411;DHT22;11878;51.774;7.220;2024-02-21T04:00:55;8.80;99.90
23411;DHT22;11878;51.774;7.220;2024-02-21T04:03:56;8.80;99.90
23411;DHT22;11878;51.774;7.220;2024-02-21T04:06:58;8.80;99.90
23411;DHT22;11878;51.774;7.220;2024-02-21T04:10:00;8.80;99.90
23411;DHT22;11878;51.774;7.220;2024-02-21T04:13:02;8.90;99.90
23411;DHT22;11878;51.774;7.220;2024-02-21T04:16:04;8.80;99.90
23411;DHT22;11878;51.774;7.220;2024-02-21T04:19:07;8.80;99.90
23411;DHT22;11878;51.774;7.220;2024-02-21T04:22:10;8.90;99.90
23411;DHT22;11878;51.774;7.220;2024-02-21T04:25:12;8.90;99.90
23411;DHT22;11878;51.774;7.220;2024-02-21T04:28:14;8.90;99.90
23411;DHT22;11878;51.774;7.220;2024-02-21T04:31:16;8.90;99.90
23411;DHT22;11878;51.774;7.220;2024-02-21T04:34:18;8.80;99.90
23411;DHT22;11878;51.774;7.220;2024-02-21T04:37:20;8.80;99.90
23411;DHT22;11878;51.774;7.220;2024-02-21T04:40:22;8.80;99.90
23411;DHT22;11878;51.774;7.220;2024-02-21T04:43:25;8.90;99.90
23411;DHT22;11878;51.774;7.220;2024-02-21T04:46:27;8.90;99.90
23411;DHT22;11878;51.774;7.220;2024-02-21T04:49:29;8.90;99.90
23411;DHT22;11878;51.774;7.220;2024-02-21T04:52:31;8.90;99.90
23411;DHT22;11878;51.774;7.220;2024-02-21T04:55:33;8.90;99.90
23411;DHT22;11878;51.774;7.220;2024-02-21T04:58:38;9.20;99.90
23411;DHT22;11878;51.774;7.220;2024-02-21T05:01:40;8.90;99.90
23411;DHT22;11878;51.774;7.220;2024-02-21T05:04:43;8.90;99.90
23411;DHT22;11878;51.774;7.220;2024-02-21T05:07:46;8.90;99.90
23411;DHT22;11878;51.774;7.220;2024-02-21T05:10:49;8.80;99.90
23411;DHT22;11878;51.774;7.220;2024-02-21T05:13:50;8.80;99.90
23411;DHT22;11878;51.774;7.220;2024-02-21T05:16:53;8.90;99.90
23411;DHT22;11878;51.774;7.220;2024-02-21T05:19:55;8.80;99.90
23411;DHT22;11878;51.774;7.220;2024-02-21T05:22:57;9.50;99.90
23411;DHT22;11878;51.774;7.220;2024-02-21T05:25:59;8.90;99.90
23411;DHT22;11878;51.774;7.220;2024-02-21T05:29:01;8.90;99.90
23411;DHT22;11878;51.774;7.220;2024-02-21T05:32:03;8.90;99.90
23411;DHT22;11878;51.774;7.220;2024-02-21T05:35:05;8.90;99.90
23411;DHT22;11878;51.774;7.220;2024-02-21T05:38:07;8.90;99.90
23411;DHT22;11878;51.774;7.220;2024-02-21T05:41:13;8.90;99.90
23411;DHT22;11878;51.774;7.220;2024-02-21T05:44:16;9.00;99.90
23411;DHT22;11878;51.774;7.220;2024-02-21T05:47:18;8.90;99.90
23411;DHT22;11878;51.774;7.220;2024-02-21T05:50:22;8.90;99.90
23411;DHT22;11878;51.774;7.220;2024-02-21T05:53:25;8.80;99.90
23411;DHT22;11878;51.774;7.220;2024-02-21T05:56:27;8.80;99.90
23411;DHT22;11878;51.774;7.220;2024-02-21T05:59:30;8.80;99.90
23411;DHT22;11878;51.774;7.220;2024-02-21T06:02:32;8.90;99.90
23411;DHT22;11878;51.774;7.220;2024-02-21T06:05:38;8.90;99.90
23411;DHT22;11878;51.774;7.220;2024-02-21T06:08:40;8.90;99.90
23411;DHT22;11878;51.774;7.220;2024-02-21T06:11:42;8.90;99.90
23411;DHT22;11878;51.774;7.220;2024-02-21T06:14:47;8.90;99.90
23411;DHT22;11878;51.774;7.220;2024-02-21T06:17:49;8.90;99.90
23411;DHT22;11878;51.774;7.220;2024-02-21T06:20:51;8.90;99.90
23411;DHT22;11878;51.774;7.220;2024-02-21T06:23:53;8.90;99.90
23411;DHT22;11878;51.774;7.220;2024-02-21T06:26:55;8.80;99.90
23411;DHT22;11878;51.774;7.220;2024-02-21T06:29:57;8.80;99.90
23411;DHT22;11878;51.774;7.220;2024-02-21T06:32:58;8.80;99.90
23411;DHT22;11878;51.774;7.220;2024-02-21T06:36:01;8.80;99.90
23411;DHT22;11878;51.774;7.220;2024-02-21T06:39:03;8.80;99.90
23411;DHT22;11878;51.774;7.220;2024-02-21T06:42:09;8.80;99.90
23411;DHT22;11878;51.774;7.220;2024-02-21T06:45:10;8.90;99.90
23411;DHT22;11878;51.774;7.220;2024-02-21T06:48:12;8.80;99.90
23411;DHT22;11878;51.774;7.220;2024-02-21T06:51:14;8.80;99.90
23411;DHT22;11878;51.774;7.220;2024-02-21T06:54:16;8.80;99.90
23411;DHT22;11878;51.774;7.220;2024-02-21T06:57:18;8.80;99.90
23411;DHT22;11878;51.774;7.220;2024-02-21T07:00:20;8.90;99.90
23411;DHT22;11878;51.774;7.220;2024-02-21T07:03:25;8.90;99.90
23411;DHT22;11878;51.774;7.220;2024-02-21T07:06:27;8.90;99.90
23411;DHT22;11878;51.774;7.220;2024-02-21T07:09:29;8.90;99.90
23411;DHT22;11878;51.774;7.220;2024-02-21T07:12:33;8.90;99.90
23411;DHT22;11878;51.774;7.220;2024-02-21T07:15:36;8.90;99.90
23411;DHT22;11878;51.774;7.220;2024-02-21T07:18:39;8.90;99.90
23411;DHT22;11878;51.774;7.220;2024-02-21T07:21:41;8.90;99.90
23411;DHT22;11878;51.774;7.220;2024-02-21T07:24:43;8.90;99.90
23411;DHT22;11878;51.774;7.220;2024-02-21T07:27:45;9.00;99.90
23411;DHT22;11878;51.774;7.220;2024-02-21T07:30:47;9.00;99.90
23411;DHT22;11878;51.774;7.220;2024-02-21T07:33:50;9.00;99.90
23411;DHT22;11878;51.774;7.220;2024-02-21T07:36:51;9.00;99.90
23411;DHT22;11878;51.774;7.220;2024-02-21T07:39:53;9.00;99.90
23411;DHT22;11878;51.774;7.220;2024-02-21T07:42:55;9.10;99.90
23411;DHT22;11878;51.774;7.220;2024-02-21T07:45:57;9.10;99.90
23411;DHT22;11878;51.774;7.220;2024-02-21T07:49:00;9.10;99.90
23411;DHT22;11878;51.774;7.220;2024-02-21T07:52:02;9.10;99.90
23411;DHT22;11878;51.774;7.220;2024-02-21T07:55:05;9.10;99.90
23411;DHT22;11878;51.774;7.220;2024-02-21T07:58:07;9.10;99.90
23411;DHT22;11878;51.774;7.220;2024-02-21T08:01:10;9.10;99.90
23411;DHT22;11878;51.774;7.220;2024-02-21T08:04:12;9.20;99.90
23411;DHT22;11878;51.774;7.220;2024-02-21T08:07:14;9.20;99.90
23411;DHT22;11878;51.774;7.220;2024-02-21T08:10:15;9.20;99.90
23411;DHT22;11878;51.774;7.220;2024-02-21T08:13:17;9.20;99.90
23411;DHT22;11878;51.774;7.220;2024-02-21T08:16:19;9.20;99.90
23411;DHT22;11878;51.774;7.220;2024-02-21T08:19:21;9.40;99.90
23411;DHT22;11878;51.774;7.220;2024-02-21T08:22:27;9.30;99.90
23411;DHT22;11878;51.774;7.220;2024-02-21T08:25:28;9.30;99.90
23411;DHT22;11878;51.774;7.220;2024-02-21T08:28:30;9.40;99.90
23411;DHT22;11878;51.774;7.220;2024-02-21T08:31:33;9.40;99.90
23411;DHT22;11878;51.774;7.220;2024-02-21T08:34:36;9.40;99.90
23411;DHT22;11878;51.774;7.220;2024-02-21T08:37:38;9.40;99.90
23411;DHT22;11878;51.774;7.220;2024-02-21T08:40:40;9.40;99.90
23411;DHT22;11878;51.774;7.220;2024-02-21T08:43:42;9.50;99.90
23411;DHT22;11878;51.774;7.220;2024-02-21T08:46:44;9.50;99.90
23411;DHT22;11878;51.774;7.220;2024-02-21T08:49:46;9.50;99.90
23411;DHT22;11878;51.774;7.220;2024-02-21T08:52:48;9.60;99.90
23411;DHT22;11878;51.774;7.220;2024-02-21T08:55:50;9.50;99.90
23411;DHT22;11878;51.774;7.220;2024-02-21T08:58:51;9.60;99.90
23411;DHT22;11878;51.774;7.220;2024-02-21T09:01:53;9.70;99.90
23411;DHT22;11878;51.774;7.220;2024-02-21T09:04:55;9.70;99.90
23411;DHT22;11878;51.774;7.220;2024-02-21T09:07:58;9.70;99.90
23411;DHT22;11878;51.774;7.220;2024-02-21T09:11:00;9.80;99.90
23411;DHT22;11878;51.774;7.220;2024-02-21T09:14:03;9.80;99.90
23411;DHT22;11878;51.774;7.220;2024-02-21T09:17:05;9.80;99.90
23411;DHT22;11878;51.774;7.220;2024-02-21T09:20:07;9.80;99.90
23411;DHT22;11878;51.774;7.220;2024-02-21T09:23:09;9.80;99.90
23411;DHT22;11878;51.774;7.220;2024-02-21T09:26:11;9.80;99.90
23411;DHT22;11878;51.774;7.220;2024-02-21T09:29:17;9.80;99.90
23411;DHT22;11878;51.774;7.220;2024-02-21T09:32:20;9.80;99.90
23411;DHT22;11878;51.774;7.220;2024-02-21T09:35:22;9.70;99.90
23411;DHT22;11878;51.774;7.220;2024-02-21T09:38:25;9.70;99.90
23411;DHT22;11878;51.774;7.220;2024-02-21T09:41:27;9.70;99.90
23411;DHT22;11878;51.774;7.220;2024-02-21T09:44:34;9.80;99.90
23411;DHT22;11878;51.774;7.220;2024-02-21T09:50:54;9.60;99.90
23411;DHT22;11878;51.774;7.220;2024-02-21T09:53:58;9.70;99.90
23411;DHT22;11878;51.774;7.220;2024-02-21T09:57:16;9.80;99.90
23411;DHT22;11878;51.774;7.220;2024-02-21T10:00:18;9.70;99.90
23411;DHT22;11878;51.774;7.220;2024-02-21T10:03:23;11.30;99.90
23411;DHT22;11878;51.774;7.220;2024-02-21T10:06:25;9.70;99.90
23411;DHT22;11878;51.774;7.220;2024-02-21T10:09:28;9.80;99.90
23411;DHT22;11878;51.774;7.220;2024-02-21T10:12:31;9.70;99.90
23411;DHT22;11878;51.774;7.220;2024-02-21T10:15:33;9.80;99.90
23411;DHT22;11878;51.774;7.220;2024-02-21T10:18:35;9.90;99.90
23411;DHT22;11878;51.774;7.220;2024-02-21T10:21:37;9.90;99.90
23411;DHT22;11878;51.774;7.220;2024-02-21T10:24:39;9.90;99.90
23411;DHT22;11878;51.774;7.220;2024-02-21T10:27:43;9.90;99.90
23411;DHT22;11878;51.774;7.220;2024-02-21T10:30:51;9.90;99.90
23411;DHT22;11878;51.774;7.220;2024-02-21T10:34:02;9.90;99.90
23411;DHT22;11878;51.774;7.220;2024-02-21T10:37:06;9.80;99.90
23411;DHT22;11878;51.774;7.220;2024-02-21T10:40:08;9.90;99.90
23411;DHT22;11878;51.774;7.220;2024-02-21T10:43:12;9.90;99.90
23411;DHT22;11878;51.774;7.220;2024-02-21T10:46:19;9.70;99.90
23411;DHT22;11878;51.774;7.220;2024-02-21T10:49:26;9.70;99.90
23411;DHT22;11878;51.774;7.220;2024-02-21T10:52:43;9.70;99.90
23411;DHT22;11878;51.774;7.220;2024-02-21T10:55:56;9.70;99.90
23411;DHT22;11878;51.774;7.220;2024-02-21T10:59:01;9.70;99.90
23411;DHT22;11878;51.774;7.220;2024-02-21T11:02:04;9.80;99.90
23411;DHT22;11878;51.774;7.220;2024-02-21T11:05:07;9.80;99.90
23411;DHT22;11878;51.774;7.220;2024-02-21T11:08:09;9.90;99.90
23411;DHT22;11878;51.774;7.220;2024-02-21T11:11:15;9.90;99.90
23411;DHT22;11878;51.774;7.220;2024-02-21T11:14:34;9.90;99.90
23411;DHT22;11878;51.774;7.220;2024-02-21T11:17:41;9.90;99.90
23411;DHT22;11878;51.774;7.220;2024-02-21T11:20:51;9.90;99.90
23411;DHT22;11878;51.774;7.220;2024-02-21T11:23:56;9.90;99.90
23411;DHT22;11878;51.774;7.220;2024-02-21T11:30:12;10.00;99.90
23411;DHT22;11878;51.774;7.220;2024-02-21T11:33:14;10.00;99.90
23411;DHT22;11878;51.774;7.220;2024-02-21T11:36:26;10.10;99.90
23411;DHT22;11878;51.774;7.220;2024-02-21T11:39:28;10.00;99.90
23411;DHT22;11878;51.774;7.220;2024-02-21T11:42:30;10.00;99.90
23411;DHT22;11878;51.774;7.220;2024-02-21T11:45:33;10.00;99.90
23411;DHT22;11878;51.774;7.220;2024-02-21T11:48:35;10.10;99.90
23411;DHT22;11878;51.774;7.220;2024-02-21T11:51:37;10.00;99.90
23411;DHT22;11878;51.774;7.220;2024-02-21T11:54:39;10.00;99.90
23411;DHT22;11878;51.774;7.220;2024-02-21T11:57:41;10.00;99.90
23411;DHT22;11878;51.774;7.220;2024-02-21T12:00:46;10.20;99.90
23411;DHT22;11878;51.774;7.220;2024-02-21T12:03:48;10.20;99.90
23411;DHT22;11878;51.774;7.220;2024-02-21T12:06:52;10.20;99.90
23411;DHT22;11878;51.774;7.220;2024-02-21T12:09:54;10.30;99.90
23411;DHT22;11878;51.774;7.220;2024-02-21T12:13:09;9.40;99.90
23411;DHT22;11878;51.774;7.220;2024-02-21T12:16:11;10.40;99.90
23411;DHT22;11878;51.774;7.220;2024-02-21T12:19:13;10.60;99.90
23411;DHT22;11878;51.774;7.220;2024-02-21T12:22:18;10.70;99.90
23411;DHT22;11878;51.774;7.220;2024-02-21T12:25:22;10.80;99.90
23411;DHT22;11878;51.774;7.220;2024-02-21T12:28:25;10.80;99.90
23411;DHT22;11878;51.774;7.220;2024-02-21T12:31:27;10.80;99.90
23411;DHT22;11878;51.774;7.220;2024-02-21T12:34:29;10.70;99.90
23411;DHT22;11878;51.774;7.220;2024-02-21T12:37:49;10.70;99.90
23411;DHT22;11878;51.774;7.220;2024-02-21T12:40:51;10.70;99.90
23411;DHT22;11878;51.774;7.220;2024-02-21T12:43:53;10.70;99.90
23411;DHT22;11878;51.774;7.220;2024-02-21T12:46:55;10.70;99.90
23411;DHT22;11878;51.774;7.220;2024-02-21T12:49:57;10.70;99.90
23411;DHT22;11878;51.774;7.220;2024-02-21T12:53:00;10.70;99.90
23411;DHT22;11878;51.774;7.220;2024-02-21T12:56:02;10.70;99.90
23411;DHT22;11878;51.774;7.220;2024-02-21T12:59:06;10.70;99.90
23411;DHT22;11878;51.774;7.220;2024-02-21T13:02:11;10.80;99.90
23411;DHT22;11878;51.774;7.220;2024-02-21T13:05:13;10.90;99.90
23411;DHT22;11878;51.774;7.220;2024-02-21T13:08:15;10.90;99.90
23411;DHT22;11878;51.774;7.220;2024-02-21T13:11:17;10.90;99.90
23411;DHT22;11878;51.774;7.220;2024-02-21T13:14:19;10.90;99.90
23411;DHT22;11878;51.774;7.220;2024-02-21T13:17:21;10.90;99.90
23411;DHT22;11878;51.774;7.220;2024-02-21T13:20:25;10.90;99.90
23411;DHT22;11878;51.774;7.220;2024-02-21T13:23:27;11.00;99.90
23411;DHT22;11878;51.774;7.220;2024-02-21T13:26:29;11.10;99.90
23411;DHT22;11878;51.774;7.220;2024-02-21T13:29:31;11.10;99.90
23411;DHT22;11878;51.774;7.220;2024-02-21T13:32:32;11.10;99.90
23411;DHT22;11878;51.774;7.220;2024-02-21T13:35:34;11.20;99.90
23411;DHT22;11878;51.774;7.220;2024-02-21T13:38:38;11.20;99.90
23411;DHT22;11878;51.774;7.220;2024-02-21T13:41:40;11.30;99.90
23411;DHT22;11878;51.774;7.220;2024-02-21T13:44:42;11.20;99.90
23411;DHT22;11878;51.774;7.220;2024-02-21T13:47:44;11.30;99.90
23411;DHT22;11878;51.774;7.220;2024-02-21T13:50:46;11.20;99.90
23411;DHT22;11878;51.774;7.220;2024-02-21T13:53:48;11.30;99.90
23411;DHT22;11878;51.774;7.220;2024-02-21T13:56:49;11.40;99.90
23411;DHT22;11878;51.774;7.220;2024-02-21T13:59:51;11.60;99.90
23411;DHT22;11878;51.774;7.220;2024-02-21T14:02:53;11.40;99.90
23411;DHT22;11878;51.774;7.220;2024-02-21T14:05:56;11.20;99.90
23411;DHT22;11878;51.774;7.220;2024-02-21T14:08:58;11.20;99.90
23411;DHT22;11878;51.774;7.220;2024-02-21T14:12:00;11.20;99.90
23411;DHT22;11878;51.774;7.220;2024-02-21T14:15:02;11.10;99.90
23411;DHT22;11878;51.774;7.220;2024-02-21T14:18:04;11.20;99.90
23411;DHT22;11878;51.774;7.220;2024-02-21T14:21:08;11.30;99.90
23411;DHT22;11878;51.774;7.220;2024-02-21T14:24:12;11.40;99.90
23411;DHT22;11878;51.774;7.220;2024-02-21T14:27:14;11.40;99.90
23411;DHT22;11878;51.774;7.220;2024-02-21T14:30:15;11.50;99.90
23411;DHT22;11878;51.774;7.220;2024-02-21T14:33:17;11.50;99.90
23411;DHT22;11878;51.774;7.220;2024-02-21T14:36:19;12.30;99.90
23411;DHT22;11878;51.774;7.220;2024-02-21T14:39:21;11.40;99.90
23411;DHT22;11878;51.774;7.220;2024-02-21T14:42:22;11.40;99.90
23411;DHT22;11878;51.774;7.220;2024-02-21T14:45:24;11.40;99.90
23411;DHT22;11878;51.774;7.220;2024-02-21T14:48:26;11.40;99.90
23411;DHT22;11878;51.774;7.220;2024-02-21T14:51:30;11.40;99.90
23411;DHT22;11878;51.774;7.220;2024-02-21T14:54:32;11.40;99.90
23411;DHT22;11878;51.774;7.220;2024-02-21T14:57:34;11.40;99.90
23411;DHT22;11878;51.774;7.220;2024-02-21T15:00:37;11.30;99.90
23411;DHT22;11878;51.774;7.220;2024-02-21T15:03:40;11.30;99.90
23411;DHT22;11878;51.774;7.220;2024-02-21T15:06:42;11.20;99.90
23411;DHT22;11878;51.774;7.220;2024-02-21T15:09:46;11.20;99.90
23411;DHT22;11878;51.774;7.220;2024-02-21T15:12:48;11.20;99.90
23411;DHT22;11878;51.774;7.220;2024-02-21T15:15:51;11.20;99.90
23411;DHT22;11878;51.774;7.220;2024-02-21T15:18:53;11.20;99.90
23411;DHT22;11878;51.774;7.220;2024-02-21T15:21:56;11.10;99.90
23411;DHT22;11878;51.774;7.220;2024-02-21T15:24:58;11.10;99.90
23411;DHT22;11878;51.774;7.220;2024-02-21T15:28:00;11.10;99.90
23411;DHT22;11878;51.774;7.220;2024-02-21T15:31:01;11.10;99.90
23411;DHT22;11878;51.774;7.220;2024-02-21T15:34:05;10.10;99.90
23411;DHT22;11878;51.774;7.220;2024-02-21T15:37:07;11.00;99.90
23411;DHT22;11878;51.774;7.220;2024-02-21T15:40:09;11.10;99.90
23411;DHT22;11878;51.774;7.220;2024-02-21T15:43:11;11.00;99.90
23411;DHT22;11878;51.774;7.220;2024-02-21T15:46:13;11.00;99.90
23411;DHT22;11878;51.774;7.220;2024-02-21T15:49:15;10.90;99.90
23411;DHT22;11878;51.774;7.220;2024-02-21T15:52:17;11.00;99.90
23411;DHT22;11878;51.774;7.220;2024-02-21T15:55:19;10.90;99.90
23411;DHT22;11878;51.774;7.220;2024-02-21T15:58:22;10.90;99.90
23411;DHT22;11878;51.774;7.220;2024-02-21T16:01:24;10.90;99.90
23411;DHT22;11878;51.774;7.220;2024-02-21T16:04:27;10.90;99.90
23411;DHT22;11878;51.774;7.220;2024-02-21T16:07:30;10.90;99.90
23411;DHT22;11878;51.774;7.220;2024-02-21T16:10:32;10.90;99.90
23411;DHT22;11878;51.774;7.220;2024-02-21T16:13:34;10.90;99.90
23411;DHT22;11878;51.774;7.220;2024-02-21T16:16:37;10.90;99.90
23411;DHT22;11878;51.774;7.220;2024-02-21T16:19:41;10.80;99.90
23411;DHT22;11878;51.774;7.220;2024-02-21T16:22:43;10.80;99.90
23411;DHT22;11878;51.774;7.220;2024-02-21T16:25:46;10.80;99.90
23411;DHT22;11878;51.774;7.220;2024-02-21T16:28:50;10.80;99.90
23411;DHT22;11878;51.774;7.220;2024-02-21T16:31:51;10.80;99.90
23411;DHT22;11878;51.774;7.220;2024-02-21T16:34:54;10.80;99.90
23411;DHT22;11878;51.774;7.220;2024-02-21T16:37:56;10.80;99.90
23411;DHT22;11878;51.774;7.220;2024-02-21T16:40:58;10.80;99.90
23411;DHT22;11878;51.774;7.220;2024-02-21T16:44:01;10.80;99.90
23411;DHT22;11878;51.774;7.220;2024-02-21T16:47:06;10.70;99.90
23411;DHT22;11878;51.774;7.220;2024-02-21T16:50:08;10.70;99.90
23411;DHT22;11878;51.774;7.220;2024-02-21T16:53:10;10.60;99.90
23411;DHT22;11878;51.774;7.220;2024-02-21T16:56:12;10.60;99.90
23411;DHT22;11878;51.774;7.220;2024-02-21T16:59:14;10.50;99.90
23411;DHT22;11878;51.774;7.220;2024-02-21T17:02:16;10.40;99.90
23411;DHT22;11878;51.774;7.220;2024-02-21T17:05:18;10.40;99.90
23411;DHT22;11878;51.774;7.220;2024-02-21T17:08:22;10.30;99.90
23411;DHT22;11878;51.774;7.220;2024-02-21T17:11:24;10.20;99.90
23411;DHT22;11878;51.774;7.220;2024-02-21T17:14:25;10.00;99.90
23411;DHT22;11878;51.774;7.220;2024-02-21T17:17:28;9.90;99.90
23411;DHT22;11878;51.774;7.220;2024-02-21T17:20:30;9.80;99.90
23411;DHT22;11878;51.774;7.220;2024-02-21T17:23:32;9.70;99.90
23411;DHT22;11878;51.774;7.220;2024-02-21T17:26:34;9.60;99.90
23411;DHT22;11878;51.774;7.220;2024-02-21T17:29:36;9.50;99.90
23411;DHT22;11878;51.774;7.220;2024-02-21T17:32:38;9.40;99.90
23411;DHT22;11878;51.774;7.220;2024-02-21T17:35:40;9.30;99.90
23411;DHT22;11878;51.774;7.220;2024-02-21T17:38:45;9.20;99.90
23411;DHT22;11878;51.774;7.220;2024-02-21T17:41:46;9.10;99.90
23411;DHT22;11878;51.774;7.220;2024-02-21T17:44:48;9.10;99.90
23411;DHT22;11878;51.774;7.220;2024-02-21T17:47:50;9.00;99.90
23411;DHT22;11878;51.774;7.220;2024-02-21T17:50:53;8.90;99.90
23411;DHT22;11878;51.774;7.220;2024-02-21T17:53:55;8.80;99.90
23411;DHT22;11878;51.774;7.220;2024-02-21T17:56:58;8.80;99.90
23411;DHT22;11878;51.774;7.220;2024-02-21T18:00:04;8.80;99.90
23411;DHT22;11878;51.774;7.220;2024-02-21T18:03:13;8.80;99.90
23411;DHT22;11878;51.774;7.220;2024-02-21T18:06:17;8.70;99.90
23411;DHT22;11878;51.774;7.220;2024-02-21T18:09:22;8.70;99.90
23411;DHT22;11878;51.774;7.220;2024-02-21T18:12:24;8.60;99.90
23411;DHT22;11878;51.774;7.220;2024-02-21T18:15:26;8.60;99.90
23411;DHT22;11878;51.774;7.220;2024-02-21T18:18:29;8.60;99.90
23411;DHT22;11878;51.774;7.220;2024-02-21T18:21:32;8.60;99.90
23411;DHT22;11878;51.774;7.220;2024-02-21T18:24:35;8.60;99.90
23411;DHT22;11878;51.774;7.220;2024-02-21T18:27:37;8.50;99.90
23411;DHT22;11878;51.774;7.220;2024-02-21T18:30:39;8.50;99.90
23411;DHT22;11878;51.774;7.220;2024-02-21T18:33:41;8.50;99.90
23411;DHT22;11878;51.774;7.220;2024-02-21T18:36:46;9.60;99.90
23411;DHT22;11878;51.774;7.220;2024-02-21T18:39:48;8.50;99.90
23411;DHT22;11878;51.774;7.220;2024-02-21T18:42:50;8.40;99.90
23411;DHT22;11878;51.774;7.220;2024-02-21T18:45:52;8.40;99.90
23411;DHT22;11878;51.774;7.220;2024-02-21T18:48:54;8.40;99.90
23411;DHT22;11878;51.774;7.220;2024-02-21T18:51:55;8.40;99.90
23411;DHT22;11878;51.774;7.220;2024-02-21T18:54:57;8.40;99.90
23411;DHT22;11878;51.774;7.220;2024-02-21T18:57:59;8.30;99.90
23411;DHT22;11878;51.774;7.220;2024-02-21T19:01:01;8.30;99.90
23411;DHT22;11878;51.774;7.220;2024-02-21T19:04:03;8.30;99.90
23411;DHT22;11878;51.774;7.220;2024-02-21T19:07:05;8.20;99.90
23411;DHT22;11878;51.774;7.220;2024-02-21T19:10:07;8.20;99.90
23411;DHT22;11878;51.774;7.220;2024-02-21T19:13:10;8.20;99.90
23411;DHT22;11878;51.774;7.220;2024-02-21T19:16:13;8.20;99.90
23411;DHT22;11878;51.774;7.220;2024-02-21T19:19:16;8.10;99.90
23411;DHT22;11878;51.774;7.220;2024-02-21T19:22:17;8.10;99.90
23411;DHT22;11878;51.774;7.220;2024-02-21T19:25:20;8.10;99.90
23411;DHT22;11878;51.774;7.220;2024-02-21T19:28:22;8.00;99.90
23411;DHT22;11878;51.774;7.220;2024-02-21T19:31:24;8.00;99.90
23411;DHT22;11878;51.774;7.220;2024-02-21T19:34:27;8.00;99.90